SBI596Z UHHH-UHBB
Flight info
| Callsign | SBI596Z |
|---|---|
| Flight time | 1h 16m |
| Altitude | 34000 |
| Route | RANOL4R RANOL B150 AMERA AMERA2G |
| Aircraft | A21N/M-SDE3FGHIRWY/LB1 |
Departure
| Time | 2026-05-04 09:40 |
|---|---|
| Airport | Khabarovsk Novy Airport (UHHH) |
Arrival
| Time | 2026-05-04 10:56 |
|---|---|
| Airport | Ignatyevo Airport (UHBB) |
| Time | Latitude | Longitude | Altitude | Speed | Heading |
|---|---|---|---|---|---|
| 2026-05-04 09:15 | 48.52528 | 135.17215 | 253 ft | 0 kts | 313° |
| 2026-05-04 09:25 | 48.52483 | 135.17271 | 253 ft | 2 kts | 344° |
| 2026-05-04 09:25 | 48.52469 | 135.17276 | 253 ft | 2 kts | 359° |
| 2026-05-04 09:26 | 48.52454 | 135.17273 | 253 ft | 2 kts | 13° |
| 2026-05-04 09:26 | 48.52440 | 135.17265 | 253 ft | 2 kts | 29° |
| 2026-05-04 09:26 | 48.52430 | 135.17256 | 253 ft | 0 kts | 40° |
| 2026-05-04 09:26 | 48.52425 | 135.17248 | 253 ft | 0 kts | 43° |
| 2026-05-04 09:31 | 48.52426 | 135.17250 | 253 ft | 0 kts | 43° |
| 2026-05-04 09:31 | 48.52431 | 135.17256 | 253 ft | 2 kts | 43° |
| 2026-05-04 09:32 | 48.52456 | 135.17293 | 253 ft | 7 kts | 43° |
| 2026-05-04 09:32 | 48.52501 | 135.17354 | 253 ft | 9 kts | 48° |
| 2026-05-04 09:34 | 48.52369 | 135.17963 | 253 ft | 12 kts | 42° |
| 2026-05-04 09:34 | 48.52440 | 135.18060 | 253 ft | 14 kts | 45° |
| 2026-05-04 09:34 | 48.52515 | 135.18176 | 253 ft | 17 kts | 45° |
| 2026-05-04 09:34 | 48.52602 | 135.18309 | 253 ft | 18 kts | 45° |
| 2026-05-04 09:35 | 48.52707 | 135.18434 | 253 ft | 19 kts | 39° |
| 2026-05-04 09:35 | 48.52816 | 135.18570 | 253 ft | 21 kts | 39° |
| 2026-05-04 09:35 | 48.52928 | 135.18724 | 253 ft | 22 kts | 43° |
| 2026-05-04 09:35 | 48.53043 | 135.18889 | 253 ft | 23 kts | 43° |
| 2026-05-04 09:37 | 48.53915 | 135.20079 | 253 ft | 12 kts | 45° |
| 2026-05-04 09:37 | 48.53936 | 135.20195 | 253 ft | 12 kts | 117° |
| 2026-05-04 09:38 | 48.53878 | 135.20297 | 253 ft | 13 kts | 131° |
| 2026-05-04 09:38 | 48.53816 | 135.20403 | 253 ft | 13 kts | 138° |
| 2026-05-04 09:38 | 48.53762 | 135.20403 | 253 ft | 0 kts | 216° |
| 2026-05-04 09:39 | 48.53745 | 135.20384 | 253 ft | 9 kts | 220° |
| 2026-05-04 09:39 | 48.53550 | 135.20119 | 253 ft | 77 kts | 222° |
| 2026-05-04 09:40 | 48.52959 | 135.19308 | 253 ft | 150 kts | 223° |
| 2026-05-04 09:40 | 48.52054 | 135.18094 | 487 ft | 187 kts | 220° |
| 2026-05-04 09:40 | 48.51088 | 135.16836 | 1322 ft | 186 kts | 220° |
| 2026-05-04 09:40 | 48.50137 | 135.15591 | 2177 ft | 179 kts | 221° |
| 2026-05-04 09:41 | 48.49754 | 135.15063 | 2361 ft | 183 kts | 223° |
| 2026-05-04 09:42 | 48.42489 | 135.03214 | 5316 ft | 264 kts | 257° |
| 2026-05-04 09:43 | 48.42469 | 135.00511 | 6081 ft | 261 kts | 284° |
| 2026-05-04 09:43 | 48.43040 | 134.97998 | 6967 ft | 255 kts | 290° |
| 2026-05-04 09:43 | 48.43670 | 134.95549 | 7839 ft | 248 kts | 290° |
| 2026-05-04 09:43 | 48.44297 | 134.93117 | 8365 ft | 255 kts | 290° |
| 2026-05-04 09:44 | 48.44947 | 134.90565 | 8660 ft | 271 kts | 290° |
| 2026-05-04 09:44 | 48.45633 | 134.87852 | 9146 ft | 279 kts | 290° |
| 2026-05-04 09:44 | 48.46313 | 134.85155 | 9773 ft | 280 kts | 290° |
| 2026-05-04 09:46 | 48.51883 | 134.62782 | 11650 ft | 372 kts | 290° |
| 2026-05-04 09:46 | 48.52809 | 134.59038 | 11861 ft | 384 kts | 290° |
| 2026-05-04 09:46 | 48.53753 | 134.55215 | 12096 ft | 394 kts | 290° |
| 2026-05-04 09:47 | 48.54714 | 134.51317 | 12527 ft | 398 kts | 290° |
| 2026-05-04 09:47 | 48.55666 | 134.47450 | 13030 ft | 399 kts | 290° |
| 2026-05-04 09:49 | 48.62460 | 134.19588 | 16090 ft | 413 kts | 289° |
| 2026-05-04 09:49 | 48.63452 | 134.15494 | 16484 ft | 415 kts | 289° |
| 2026-05-04 09:49 | 48.64397 | 134.11404 | 16861 ft | 416 kts | 286° |
| 2026-05-04 09:51 | 48.68695 | 133.85689 | 18945 ft | 426 kts | 282° |
| 2026-05-04 09:51 | 48.69394 | 133.81326 | 19260 ft | 427 kts | 282° |
| 2026-05-04 09:51 | 48.70089 | 133.76985 | 19565 ft | 429 kts | 282° |
| 2026-05-04 09:51 | 48.70793 | 133.72578 | 19861 ft | 431 kts | 282° |
| 2026-05-04 09:52 | 48.71492 | 133.68193 | 20149 ft | 432 kts | 282° |
| 2026-05-04 09:52 | 48.72191 | 133.63792 | 20434 ft | 433 kts | 282° |
| 2026-05-04 09:52 | 48.72902 | 133.59309 | 20718 ft | 435 kts | 282° |
| 2026-05-04 09:52 | 48.73605 | 133.54860 | 20981 ft | 436 kts | 282° |
| 2026-05-04 09:53 | 48.74309 | 133.50394 | 21241 ft | 438 kts | 282° |
| 2026-05-04 09:53 | 48.75013 | 133.45923 | 21490 ft | 439 kts | 282° |
| 2026-05-04 09:53 | 48.75716 | 133.41437 | 21735 ft | 440 kts | 282° |
| 2026-05-04 09:53 | 48.76421 | 133.36926 | 21978 ft | 441 kts | 282° |
| 2026-05-04 09:54 | 48.77125 | 133.32416 | 22214 ft | 443 kts | 282° |
| 2026-05-04 09:54 | 48.77833 | 133.27858 | 22450 ft | 444 kts | 282° |
| 2026-05-04 09:54 | 48.78535 | 133.23331 | 22672 ft | 445 kts | 282° |
| 2026-05-04 09:54 | 48.79247 | 133.18726 | 22895 ft | 446 kts | 282° |
| 2026-05-04 09:55 | 48.79945 | 133.14201 | 23123 ft | 447 kts | 282° |
| 2026-05-04 09:55 | 48.80652 | 133.09599 | 23438 ft | 445 kts | 282° |
| 2026-05-04 09:55 | 48.81348 | 133.05057 | 23785 ft | 443 kts | 281° |
| 2026-05-04 09:55 | 48.82039 | 133.00534 | 24123 ft | 441 kts | 281° |
| 2026-05-04 09:56 | 48.82803 | 132.95999 | 24450 ft | 440 kts | 284° |
| 2026-05-04 09:56 | 48.83731 | 132.91632 | 24764 ft | 440 kts | 288° |
| 2026-05-04 09:56 | 48.84847 | 132.87338 | 25067 ft | 440 kts | 291° |
| 2026-05-04 09:56 | 48.86136 | 132.83099 | 25366 ft | 439 kts | 293° |
| 2026-05-04 09:57 | 48.87448 | 132.78955 | 25656 ft | 438 kts | 293° |
| 2026-05-04 09:57 | 48.88769 | 132.74815 | 25940 ft | 437 kts | 293° |
| 2026-05-04 09:57 | 48.90095 | 132.70656 | 26222 ft | 436 kts | 293° |
| 2026-05-04 09:57 | 48.91401 | 132.66550 | 26501 ft | 435 kts | 293° |
| 2026-05-04 09:58 | 48.92713 | 132.62413 | 26776 ft | 434 kts | 293° |
| 2026-05-04 09:58 | 48.94011 | 132.58311 | 27050 ft | 433 kts | 293° |
| 2026-05-04 09:58 | 48.95325 | 132.54152 | 27324 ft | 432 kts | 293° |
| 2026-05-04 10:00 | 49.04315 | 132.25484 | 29189 ft | 427 kts | 292° |
| 2026-05-04 10:00 | 49.05572 | 132.21443 | 29455 ft | 427 kts | 292° |
| 2026-05-04 10:02 | 49.13703 | 131.95149 | 33598 ft | 363 kts | 291° |
| 2026-05-04 10:04 | 49.21585 | 131.69327 | 33605 ft | 402 kts | 291° |
| 2026-05-04 10:04 | 49.23972 | 131.61484 | 33604 ft | 412 kts | 292° |
| 2026-05-04 10:05 | 49.26412 | 131.53484 | 33604 ft | 420 kts | 292° |
| 2026-05-04 10:05 | 49.28889 | 131.45331 | 33603 ft | 424 kts | 292° |
| 2026-05-04 10:06 | 49.31394 | 131.37059 | 33600 ft | 429 kts | 292° |
| 2026-05-04 10:06 | 49.33787 | 131.29123 | 33590 ft | 430 kts | 291° |
| 2026-05-04 10:08 | 49.42506 | 130.99994 | 33493 ft | 430 kts | 291° |
| 2026-05-04 10:08 | 49.44971 | 130.91701 | 33477 ft | 429 kts | 290° |
| 2026-05-04 10:09 | 49.47434 | 130.83388 | 33470 ft | 427 kts | 290° |
| 2026-05-04 10:09 | 49.49878 | 130.75101 | 33464 ft | 422 kts | 290° |
| 2026-05-04 10:10 | 49.52288 | 130.66890 | 33464 ft | 420 kts | 290° |
| 2026-05-04 10:10 | 49.54674 | 130.58736 | 33464 ft | 420 kts | 290° |
| 2026-05-04 10:11 | 49.57063 | 130.50548 | 33464 ft | 420 kts | 290° |
| 2026-05-04 10:11 | 49.59443 | 130.42364 | 33464 ft | 420 kts | 290° |
| 2026-05-04 10:12 | 49.61779 | 130.34305 | 33465 ft | 420 kts | 289° |
| 2026-05-04 10:12 | 49.64160 | 130.26065 | 33465 ft | 420 kts | 289° |
| 2026-05-04 10:13 | 49.66515 | 130.17886 | 33464 ft | 420 kts | 289° |
| 2026-05-04 10:13 | 49.68883 | 130.09634 | 33464 ft | 420 kts | 289° |
| 2026-05-04 10:14 | 49.71226 | 130.01440 | 33464 ft | 420 kts | 289° |
| 2026-05-04 10:16 | 49.79390 | 129.72604 | 32385 ft | 415 kts | 289° |
| 2026-05-04 10:16 | 49.80524 | 129.68555 | 31830 ft | 415 kts | 289° |
| 2026-05-04 10:16 | 49.81673 | 129.64444 | 31132 ft | 416 kts | 289° |
| 2026-05-04 10:16 | 49.82821 | 129.60323 | 30367 ft | 419 kts | 289° |
| 2026-05-04 10:17 | 49.83964 | 129.56215 | 29571 ft | 422 kts | 289° |
| 2026-05-04 10:17 | 49.85130 | 129.52017 | 28736 ft | 426 kts | 289° |
| 2026-05-04 10:19 | 49.91354 | 129.29481 | 23994 ft | 447 kts | 289° |
| 2026-05-04 10:19 | 49.92570 | 129.25056 | 23011 ft | 451 kts | 289° |
| 2026-05-04 10:19 | 49.93785 | 129.20627 | 22165 ft | 450 kts | 289° |
| 2026-05-04 10:20 | 49.95011 | 129.16161 | 21529 ft | 445 kts | 289° |
| 2026-05-04 10:20 | 49.96193 | 129.11845 | 20911 ft | 440 kts | 289° |
| 2026-05-04 10:20 | 49.97387 | 129.07477 | 20278 ft | 436 kts | 289° |
| 2026-05-04 10:20 | 49.98566 | 129.03159 | 19642 ft | 432 kts | 289° |
| 2026-05-04 10:21 | 49.99722 | 128.98915 | 19007 ft | 429 kts | 289° |
| 2026-05-04 10:21 | 50.00887 | 128.94623 | 18359 ft | 427 kts | 288° |
| 2026-05-04 10:21 | 50.02018 | 128.90448 | 17712 ft | 425 kts | 288° |
| 2026-05-04 10:21 | 50.03167 | 128.86192 | 17027 ft | 423 kts | 288° |
| 2026-05-04 10:22 | 50.05424 | 128.77800 | 15735 ft | 419 kts | 288° |
| 2026-05-04 10:22 | 50.06530 | 128.73683 | 15118 ft | 416 kts | 289° |
| 2026-05-04 10:22 | 50.07642 | 128.69533 | 14500 ft | 414 kts | 289° |
| 2026-05-04 10:23 | 50.08746 | 128.65410 | 13887 ft | 411 kts | 289° |
| 2026-05-04 10:23 | 50.09837 | 128.61330 | 13279 ft | 408 kts | 289° |
| 2026-05-04 10:25 | 50.17061 | 128.34160 | 10489 ft | 353 kts | 288° |
| 2026-05-04 10:25 | 50.17974 | 128.30698 | 10296 ft | 342 kts | 288° |
| 2026-05-04 10:25 | 50.18866 | 128.27307 | 10117 ft | 330 kts | 288° |
| 2026-05-04 10:25 | 50.19715 | 128.24080 | 9953 ft | 319 kts | 288° |
| 2026-05-04 10:26 | 50.20547 | 128.20906 | 9800 ft | 308 kts | 288° |
| 2026-05-04 10:26 | 50.21340 | 128.17883 | 9661 ft | 297 kts | 288° |
| 2026-05-04 10:26 | 50.22107 | 128.14958 | 9530 ft | 286 kts | 288° |
| 2026-05-04 10:26 | 50.22820 | 128.12128 | 9277 ft | 280 kts | 286° |
| 2026-05-04 10:27 | 50.23501 | 128.09290 | 8906 ft | 280 kts | 286° |
| 2026-05-04 10:27 | 50.24174 | 128.06468 | 8556 ft | 278 kts | 286° |
| 2026-05-04 10:27 | 50.24855 | 128.03618 | 8210 ft | 276 kts | 287° |
| 2026-05-04 10:27 | 50.25517 | 128.00854 | 7877 ft | 274 kts | 287° |
| 2026-05-04 10:28 | 50.26181 | 127.98086 | 7544 ft | 272 kts | 287° |
| 2026-05-04 10:28 | 50.26848 | 127.95309 | 7210 ft | 270 kts | 287° |
| 2026-05-04 10:28 | 50.27498 | 127.92593 | 6884 ft | 268 kts | 287° |
| 2026-05-04 10:28 | 50.28153 | 127.89860 | 6553 ft | 266 kts | 287° |
| 2026-05-04 10:29 | 50.28798 | 127.87163 | 6228 ft | 264 kts | 287° |
| 2026-05-04 10:29 | 50.29433 | 127.84498 | 5906 ft | 262 kts | 286° |
| 2026-05-04 10:29 | 50.29857 | 127.81761 | 5576 ft | 257 kts | 274° |
| 2026-05-04 10:29 | 50.29908 | 127.78968 | 5251 ft | 254 kts | 265° |
| 2026-05-04 10:30 | 50.29818 | 127.76240 | 4931 ft | 252 kts | 264° |
| 2026-05-04 10:30 | 50.29710 | 127.73536 | 4613 ft | 251 kts | 264° |
| 2026-05-04 10:30 | 50.29604 | 127.70821 | 4293 ft | 249 kts | 265° |
| 2026-05-04 10:30 | 50.29504 | 127.68122 | 4081 ft | 242 kts | 265° |
| 2026-05-04 10:31 | 50.29414 | 127.65582 | 4061 ft | 229 kts | 265° |
| 2026-05-04 10:31 | 50.29329 | 127.63166 | 4023 ft | 216 kts | 265° |
| 2026-05-04 10:32 | 50.28822 | 127.54252 | 3458 ft | 159 kts | 260° |
| 2026-05-04 10:33 | 50.28660 | 127.52537 | 3176 ft | 159 kts | 259° |
| 2026-05-04 10:33 | 50.28502 | 127.50857 | 2937 ft | 156 kts | 258° |
| 2026-05-04 10:33 | 50.28344 | 127.49160 | 2769 ft | 157 kts | 262° |
| 2026-05-04 10:33 | 50.28503 | 127.47476 | 2518 ft | 159 kts | 289° |
| 2026-05-04 10:34 | 50.29126 | 127.46088 | 2296 ft | 163 kts | 321° |
| 2026-05-04 10:34 | 50.30205 | 127.45457 | 2238 ft | 164 kts | 344° |
| 2026-05-04 10:34 | 50.30949 | 127.45257 | 2215 ft | 162 kts | 344° |
| 2026-05-04 10:34 | 50.32045 | 127.44991 | 2208 ft | 160 kts | 344° |
| 2026-05-04 10:35 | 50.33122 | 127.44683 | 2227 ft | 155 kts | 343° |
| 2026-05-04 10:35 | 50.34177 | 127.44346 | 2086 ft | 155 kts | 342° |
| 2026-05-04 10:35 | 50.35228 | 127.43998 | 1890 ft | 153 kts | 340° |
| 2026-05-04 10:35 | 50.36276 | 127.43665 | 1694 ft | 155 kts | 343° |
| 2026-05-04 10:36 | 50.37352 | 127.43346 | 1473 ft | 156 kts | 341° |
| 2026-05-04 10:36 | 50.38396 | 127.42968 | 1276 ft | 154 kts | 341° |
| 2026-05-04 10:36 | 50.39429 | 127.42593 | 1100 ft | 153 kts | 345° |
| 2026-05-04 10:36 | 50.40470 | 127.42281 | 829 ft | 154 kts | 341° |
| 2026-05-04 10:37 | 50.41525 | 127.41930 | 663 ft | 152 kts | 343° |
| 2026-05-04 10:37 | 50.42494 | 127.41637 | 762 ft | 141 kts | 344° |
| 2026-05-04 10:37 | 50.43428 | 127.41315 | 1245 ft | 141 kts | 341° |
| 2026-05-04 10:37 | 50.44391 | 127.40944 | 1704 ft | 148 kts | 340° |
| 2026-05-04 10:39 | 50.43401 | 127.49174 | 2976 ft | 245 kts | 143° |
| 2026-05-04 10:39 | 50.42130 | 127.50951 | 3003 ft | 250 kts | 142° |
| 2026-05-04 10:39 | 50.40823 | 127.52847 | 3447 ft | 257 kts | 141° |
| 2026-05-04 10:40 | 50.39571 | 127.54717 | 3862 ft | 242 kts | 140° |
| 2026-05-04 10:40 | 50.38362 | 127.56544 | 4018 ft | 239 kts | 141° |
| 2026-05-04 10:40 | 50.37190 | 127.58312 | 4013 ft | 233 kts | 141° |
| 2026-05-04 10:40 | 50.36019 | 127.60076 | 4019 ft | 235 kts | 141° |
| 2026-05-04 10:41 | 50.34840 | 127.61848 | 4015 ft | 233 kts | 140° |
| 2026-05-04 10:41 | 50.33864 | 127.63872 | 3993 ft | 241 kts | 118° |
| 2026-05-04 10:41 | 50.33247 | 127.66377 | 4020 ft | 247 kts | 112° |
| 2026-05-04 10:41 | 50.32706 | 127.68918 | 4026 ft | 247 kts | 112° |
| 2026-05-04 10:42 | 50.32158 | 127.71460 | 4021 ft | 244 kts | 113° |
| 2026-05-04 10:42 | 50.31817 | 127.74056 | 4001 ft | 251 kts | 90° |
| 2026-05-04 10:42 | 50.32275 | 127.76698 | 4018 ft | 255 kts | 59° |
| 2026-05-04 10:42 | 50.33474 | 127.78659 | 4014 ft | 250 kts | 27° |
| 2026-05-04 10:43 | 50.35102 | 127.79480 | 4021 ft | 245 kts | 358° |
| 2026-05-04 10:44 | 50.35978 | 127.67815 | 4027 ft | 217 kts | 221° |
| 2026-05-04 10:45 | 50.35024 | 127.65991 | 4012 ft | 216 kts | 245° |
| 2026-05-04 10:45 | 50.34667 | 127.63711 | 4017 ft | 220 kts | 268° |
| 2026-05-04 10:45 | 50.34993 | 127.61372 | 4015 ft | 227 kts | 294° |
| 2026-05-04 10:45 | 50.35991 | 127.59425 | 4021 ft | 236 kts | 320° |
| 2026-05-04 10:46 | 50.37475 | 127.58374 | 4019 ft | 240 kts | 347° |
| 2026-05-04 10:46 | 50.39167 | 127.58520 | 4019 ft | 248 kts | 16° |
| 2026-05-04 10:46 | 50.40643 | 127.59911 | 4016 ft | 252 kts | 47° |
| 2026-05-04 10:46 | 50.41530 | 127.62247 | 4021 ft | 251 kts | 77° |
| 2026-05-04 10:47 | 50.41601 | 127.64951 | 4019 ft | 249 kts | 108° |
| 2026-05-04 10:47 | 50.41062 | 127.67514 | 4040 ft | 245 kts | 116° |
| 2026-05-04 10:47 | 50.40417 | 127.69985 | 4029 ft | 245 kts | 116° |
| 2026-05-04 10:47 | 50.39785 | 127.72449 | 4023 ft | 245 kts | 115° |
| 2026-05-04 10:49 | 50.32371 | 127.76123 | 4028 ft | 225 kts | 253° |
| 2026-05-04 10:49 | 50.31945 | 127.73704 | 4031 ft | 232 kts | 253° |
| 2026-05-04 10:50 | 50.31524 | 127.71287 | 4027 ft | 232 kts | 254° |
| 2026-05-04 10:51 | 50.28990 | 127.56293 | 3686 ft | 183 kts | 262° |
| 2026-05-04 10:52 | 50.28805 | 127.54379 | 3484 ft | 173 kts | 265° |
| 2026-05-04 10:52 | 50.28645 | 127.52541 | 3178 ft | 169 kts | 264° |
| 2026-05-04 10:52 | 50.28497 | 127.50789 | 2955 ft | 158 kts | 260° |
| 2026-05-04 10:54 | 50.33727 | 127.44455 | 2239 ft | 172 kts | 343° |
| 2026-05-04 10:54 | 50.34858 | 127.44109 | 2129 ft | 160 kts | 342° |
| 2026-05-04 10:56 | 50.42014 | 127.41765 | 647 ft | 130 kts | 346° |
| 2026-05-04 10:56 | 50.42760 | 127.41529 | 647 ft | 84 kts | 343° |
| 2026-05-04 10:56 | 50.43166 | 127.41397 | 647 ft | 41 kts | 348° |
| 2026-05-04 10:57 | 50.43431 | 127.41331 | 647 ft | 36 kts | 354° |
| 2026-05-04 10:57 | 50.43639 | 127.41241 | 647 ft | 23 kts | 341° |
| 2026-05-04 10:57 | 50.43791 | 127.41190 | 647 ft | 22 kts | 347° |
| 2026-05-04 10:57 | 50.43937 | 127.41140 | 647 ft | 21 kts | 348° |
| 2026-05-04 10:58 | 50.43981 | 127.41142 | 647 ft | 1 kts | 95° |
| 2026-05-04 10:58 | 50.43966 | 127.41145 | 647 ft | 3 kts | 187° |
| 2026-05-04 10:58 | 50.43899 | 127.41154 | 647 ft | 22 kts | 171° |
| 2026-05-04 10:58 | 50.43746 | 127.41212 | 647 ft | 22 kts | 166° |
| 2026-05-04 10:59 | 50.43599 | 127.41266 | 647 ft | 21 kts | 169° |
| 2026-05-04 10:59 | 50.43449 | 127.41309 | 647 ft | 22 kts | 171° |
| 2026-05-04 10:59 | 50.43296 | 127.41361 | 647 ft | 22 kts | 166° |
| 2026-05-04 10:59 | 50.43138 | 127.41416 | 647 ft | 23 kts | 168° |
| 2026-05-04 11:00 | 50.42975 | 127.41462 | 647 ft | 22 kts | 179° |
| 2026-05-04 11:01 | 50.42348 | 127.40950 | 647 ft | 8 kts | 232° |
| 2026-05-04 11:02 | 50.42337 | 127.40894 | 647 ft | 3 kts | 265° |
| 2026-05-04 11:02 | 50.42332 | 127.40860 | 647 ft | 2 kts | 258° |
| 2026-05-04 11:05 | 50.42332 | 127.40852 | 647 ft | 0 kts | 262° |